Time;durP1;ratioP1;P1;durP2;ratioP2;P2;SDS_P1;SDS_P2;PMS_P1;PMS_P2;Temp;Humidity;BMP_temperature;BMP_pressure;BME280_temperature;BME280_humidity;BME280_pressure;Samples;Min_cycle;Max_cycle;Signal;HPM_P1;HPM_P2
2021/10/31 00:00:42;;;;;;;23.10;13.43;;;;;;;;;;4879838;29;20052;-70
2021/10/31 00:03:08;;;;;;;21.60;13.38;;;;;;;;;;4863231;29;20059;-70
2021/10/31 00:05:34;;;;;;;21.23;13.30;;;;;;;;;;4879670;29;20021;-70
2021/10/31 00:08:00;;;;;;;24.50;13.93;;;;;;;;;;4879742;29;20067;-72
2021/10/31 00:10:26;;;;;;;22.45;13.98;;;;;;;;;;4879566;29;20375;-72
2021/10/31 00:12:53;;;;;;;25.13;13.93;;;;;;;;;;4879484;29;20417;-71
2021/10/31 00:15:19;;;;;;;22.25;14.25;;;;;;;;;;4879381;29;20068;-70
2021/10/31 00:17:45;;;;;;;21.63;13.30;;;;;;;;;;4879609;29;20045;-71
2021/10/31 00:20:11;;;;;;;24.27;14.38;;;;;;;;;;4879144;29;20093;-73
2021/10/31 00:22:37;;;;;;;24.15;14.40;;;;;;;;;;4879240;29;20185;-71
2021/10/31 00:25:04;;;;;;;26.15;15.63;;;;;;;;;;4879459;29;20056;-72
2021/10/31 00:27:30;;;;;;;23.00;14.95;;;;;;;;;;4879480;29;20029;-72
2021/10/31 00:29:56;;;;;;;26.85;15.93;;;;;;;;;;4879207;29;20044;-73
2021/10/31 00:32:22;;;;;;;25.75;16.00;;;;;;;;;;4879115;29;20021;-73
2021/10/31 00:34:48;;;;;;;27.55;15.75;;;;;;;;;;4879350;29;20029;-73
2021/10/31 00:37:14;;;;;;;29.13;16.73;;;;;;;;;;4879223;29;20033;-72
2021/10/31 00:39:40;;;;;;;24.70;16.10;;;;;;;;;;4879277;29;20029;-69
2021/10/31 00:42:06;;;;;;;27.85;16.80;;;;;;;;;;4878957;29;20386;-69
2021/10/31 00:44:32;;;;;;;28.67;17.23;;;;;;;;;;4879299;29;20029;-72
2021/10/31 00:46:58;;;;;;;26.38;16.58;;;;;;;;;;4879046;29;20059;-72
2021/10/31 00:49:24;;;;;;;27.60;16.73;;;;;;;;;;4878906;29;20067;-70
2021/10/31 00:51:50;;;;;;;28.33;16.73;;;;;;;;;;4878868;29;20083;-72
2021/10/31 00:54:17;;;;;;;28.58;16.88;;;;;;;;;;4878941;29;20040;-74
2021/10/31 00:56:43;;;;;;;28.13;16.52;;;;;;;;;;4878763;29;20035;-68
2021/10/31 00:59:09;;;;;;;29.17;16.10;;;;;;;;;;4878776;29;20064;-72
2021/10/31 01:01:35;;;;;;;31.80;17.27;;;;;;;;;;4879017;29;20032;-71
2021/10/31 01:04:04;;;;;;;27.77;17.27;;;;;;;;;;4878453;29;20029;-71
2021/10/31 01:06:49;;;;;;;32.83;17.65;;;;;;;;;;4878578;29;20029;-73
2021/10/31 01:09:34;;;;;;;29.02;16.58;;;;;;;;;;4861800;29;20036;-70
2021/10/31 01:12:15;;;;;;;25.25;16.38;;;;;;;;;;4878754;29;20033;-70
2021/10/31 01:15:08;;;;;;;29.15;17.90;;;;;;;;;;4878130;29;20112;-72
2021/10/31 01:17:38;;;;;;;29.48;17.20;;;;;;;;;;4874978;29;20148;-70
2021/10/31 01:20:16;;;;;;;30.27;17.83;;;;;;;;;;4878435;29;20065;-70
2021/10/31 01:22:41;;;;;;;26.67;17.00;;;;;;;;;;4878261;29;20047;-69
2021/10/31 01:25:23;;;;;;;29.42;17.17;;;;;;;;;;4878472;29;20037;-69
2021/10/31 01:27:49;;;;;;;27.83;16.58;;;;;;;;;;4877906;29;20037;-72
2021/10/31 01:30:24;;;;;;;27.70;16.77;;;;;;;;;;4878239;29;20112;-71
2021/10/31 01:32:53;;;;;;;30.20;16.33;;;;;;;;;;4878072;29;20036;-70
2021/10/31 01:35:38;;;;;;;27.95;16.75;;;;;;;;;;4878494;29;20029;-72
2021/10/31 01:38:04;;;;;;;27.60;16.48;;;;;;;;;;4878231;29;20025;-70
2021/10/31 01:40:39;;;;;;;26.30;14.77;;;;;;;;;;4878005;29;20048;-70
2021/10/31 01:43:08;;;;;;;25.00;15.70;;;;;;;;;;4877899;29;20033;-70
2021/10/31 01:45:49;;;;;;;24.52;15.73;;;;;;;;;;4877933;29;20371;-70
2021/10/31 01:48:22;;;;;;;26.63;14.95;;;;;;;;;;4861332;29;20069;-71
2021/10/31 01:50:49;;;;;;;25.70;14.57;;;;;;;;;;4877909;29;20056;-71
2021/10/31 01:53:15;;;;;;;25.27;14.70;;;;;;;;;;4877834;29;20037;-70
2021/10/31 01:55:44;;;;;;;27.30;14.55;;;;;;;;;;4877820;29;20037;-72
2021/10/31 01:58:10;;;;;;;24.17;15.25;;;;;;;;;;4877696;29;20029;-70
2021/10/31 02:00:37;;;;;;;22.48;13.98;;;;;;;;;;4877531;29;20482;-70
2021/10/31 02:03:03;;;;;;;25.50;15.02;;;;;;;;;;4877639;29;20057;-72
2021/10/31 02:05:36;;;;;;;24.15;14.02;;;;;;;;;;4877683;29;20093;-70
2021/10/31 02:08:04;;;;;;;23.45;14.70;;;;;;;;;;4877738;29;20021;-69
2021/10/31 02:10:32;;;;;;;25.55;15.05;;;;;;;;;;4877672;29;20039;-70
2021/10/31 02:12:58;;;;;;;23.73;13.15;;;;;;;;;;4877576;29;20369;-70
2021/10/31 02:15:24;;;;;;;23.98;14.02;;;;;;;;;;4876793;29;20064;-72
2021/10/31 02:17:53;;;;;;;22.38;13.63;;;;;;;;;;4877491;29;20069;-71
2021/10/31 02:20:20;;;;;;;21.77;13.13;;;;;;;;;;4877424;29;20044;-71
2021/10/31 02:22:54;;;;;;;22.10;13.50;;;;;;;;;;4877397;29;20507;-72
2021/10/31 02:25:21;;;;;;;24.52;13.80;;;;;;;;;;4860891;29;20139;-72
2021/10/31 02:27:48;;;;;;;21.73;12.70;;;;;;;;;;4877317;29;20036;-71
2021/10/31 02:30:15;;;;;;;20.13;13.25;;;;;;;;;;4877516;29;20057;-70
2021/10/31 02:32:41;;;;;;;22.35;12.65;;;;;;;;;;4860639;29;20033;-70
2021/10/31 02:35:09;;;;;;;19.83;12.82;;;;;;;;;;4877317;29;20032;-70
2021/10/31 02:37:39;;;;;;;24.15;13.05;;;;;;;;;;4877331;29;20056;-70
2021/10/31 02:40:06;;;;;;;27.55;13.85;;;;;;;;;;4877381;29;20045;-69
2021/10/31 02:42:32;;;;;;;24.65;13.20;;;;;;;;;;4877088;29;20112;-69
2021/10/31 02:44:58;;;;;;;21.05;13.38;;;;;;;;;;4877117;29;20516;-69
2021/10/31 02:47:30;;;;;;;24.20;12.75;;;;;;;;;;4877085;29;20025;-71
2021/10/31 02:49:57;;;;;;;19.88;12.55;;;;;;;;;;4877048;29;20096;-70
2021/10/31 02:52:36;;;;;;;20.88;12.85;;;;;;;;;;4876796;29;20066;-70
2021/10/31 02:55:11;;;;;;;20.20;12.73;;;;;;;;;;4877196;29;20029;-69
2021/10/31 02:57:49;;;;;;;20.92;13.23;;;;;;;;;;4877136;29;20033;-69
2021/10/31 03:00:16;;;;;;;21.77;13.35;;;;;;;;;;4877115;29;20120;-71
2021/10/31 03:02:43;;;;;;;23.52;12.48;;;;;;;;;;4878302;29;20037;-69
2021/10/31 03:05:09;;;;;;;20.90;12.25;;;;;;;;;;4877914;29;20033;-68
2021/10/31 03:07:36;;;;;;;20.15;11.65;;;;;;;;;;4876920;29;20021;-70
2021/10/31 03:10:02;;;;;;;23.00;12.57;;;;;;;;;;4876962;29;20037;-69
2021/10/31 03:12:28;;;;;;;19.38;11.65;;;;;;;;;;4876986;29;20033;-69
2021/10/31 03:14:54;;;;;;;20.52;11.70;;;;;;;;;;4876943;29;20045;-69
2021/10/31 03:17:20;;;;;;;20.75;12.07;;;;;;;;;;4876760;29;20060;-69
2021/10/31 03:19:46;;;;;;;19.13;12.43;;;;;;;;;;4860098;29;20049;-69
2021/10/31 03:22:12;;;;;;;22.65;12.32;;;;;;;;;;4876784;29;20037;-70
2021/10/31 03:24:38;;;;;;;19.85;11.73;;;;;;;;;;4876854;29;20028;-69
2021/10/31 03:27:05;;;;;;;18.77;11.18;;;;;;;;;;4877411;29;20036;-69
2021/10/31 03:29:31;;;;;;;16.35;11.35;;;;;;;;;;4880803;29;20033;-69
2021/10/31 03:31:57;;;;;;;19.52;11.38;;;;;;;;;;4880491;29;20033;-69
2021/10/31 03:34:23;;;;;;;23.83;12.55;;;;;;;;;;4880373;29;20044;-70
2021/10/31 03:36:49;;;;;;;20.42;11.23;;;;;;;;;;4880483;29;20033;-69
2021/10/31 03:39:16;;;;;;;24.48;11.82;;;;;;;;;;4880329;29;20083;-69
2021/10/31 03:41:45;;;;;;;19.85;11.50;;;;;;;;;;4880421;29;20453;-69
2021/10/31 03:44:13;;;;;;;18.33;11.60;;;;;;;;;;4880140;29;20033;-70
2021/10/31 03:46:39;;;;;;;18.15;10.95;;;;;;;;;;4880325;29;20044;-70
2021/10/31 03:49:05;;;;;;;17.42;10.90;;;;;;;;;;4880394;29;20037;-70
2021/10/31 03:51:32;;;;;;;16.13;10.30;;;;;;;;;;4880248;29;20165;-69
2021/10/31 03:53:58;;;;;;;17.52;10.82;;;;;;;;;;4880350;29;20564;-70
2021/10/31 03:56:24;;;;;;;16.50;10.75;;;;;;;;;;4880235;29;20037;-70
2021/10/31 03:58:50;;;;;;;17.50;11.38;;;;;;;;;;4880222;29;20040;-71
2021/10/31 04:01:17;;;;;;;18.15;10.52;;;;;;;;;;4879950;29;20092;-70
2021/10/31 04:03:43;;;;;;;19.73;10.82;;;;;;;;;;4879979;29;20021;-70
2021/10/31 04:06:12;;;;;;;18.05;10.63;;;;;;;;;;4880052;29;20027;-70
2021/10/31 04:08:38;;;;;;;17.00;10.65;;;;;;;;;;4880156;29;20029;-69
2021/10/31 04:11:04;;;;;;;16.77;9.90;;;;;;;;;;4879949;29;20426;-70
2021/10/31 04:13:30;;;;;;;17.88;10.70;;;;;;;;;;4879884;29;20501;-69
2021/10/31 04:15:57;;;;;;;16.63;10.68;;;;;;;;;;4879501;29;20052;-72
2021/10/31 04:18:23;;;;;;;18.00;11.00;;;;;;;;;;4879642;29;20048;-70
2021/10/31 04:20:49;;;;;;;20.25;11.10;;;;;;;;;;4879567;29;20104;-69
2021/10/31 04:23:16;;;;;;;20.25;11.00;;;;;;;;;;4879655;29;20025;-69
2021/10/31 04:25:42;;;;;;;19.23;10.68;;;;;;;;;;4879712;29;20029;-70
2021/10/31 04:28:08;;;;;;;19.55;10.55;;;;;;;;;;4879502;29;20477;-70
2021/10/31 04:30:34;;;;;;;17.45;10.20;;;;;;;;;;4879384;29;20762;-67
2021/10/31 04:33:01;;;;;;;17.85;10.50;;;;;;;;;;4879175;29;20032;-68
2021/10/31 04:35:27;;;;;;;17.23;11.27;;;;;;;;;;4879654;29;20088;-68
2021/10/31 04:37:56;;;;;;;17.65;10.88;;;;;;;;;;4879136;29;20021;-70
2021/10/31 04:40:23;;;;;;;16.90;10.35;;;;;;;;;;4879239;29;20371;-69
2021/10/31 04:42:53;;;;;;;15.90;9.90;;;;;;;;;;4879413;29;20032;-71
2021/10/31 04:45:19;;;;;;;15.68;9.85;;;;;;;;;;4879351;29;20033;-69
2021/10/31 04:47:45;;;;;;;20.23;10.77;;;;;;;;;;4879450;29;20489;-67
2021/10/31 04:50:11;;;;;;;17.63;10.93;;;;;;;;;;4879025;29;20025;-71
2021/10/31 04:52:42;;;;;;;17.77;10.20;;;;;;;;;;4878872;29;20044;-70
2021/10/31 04:55:08;;;;;;;18.90;10.55;;;;;;;;;;4873146;29;20025;-70
2021/10/31 04:57:34;;;;;;;17.85;11.02;;;;;;;;;;4868044;29;20025;-70
2021/10/31 05:00:01;;;;;;;19.10;10.82;;;;;;;;;;4869215;29;20043;-70
2021/10/31 05:02:27;;;;;;;17.55;10.70;;;;;;;;;;4869384;29;20029;-71
2021/10/31 05:04:53;;;;;;;15.98;10.55;;;;;;;;;;4865462;29;20029;-69
2021/10/31 05:07:19;;;;;;;17.40;10.75;;;;;;;;;;4860045;29;20033;-69
2021/10/31 05:09:45;;;;;;;18.00;10.68;;;;;;;;;;4864949;29;20551;-68
2021/10/31 05:12:11;;;;;;;18.52;11.43;;;;;;;;;;4869714;29;20484;-69
2021/10/31 05:14:37;;;;;;;20.80;11.73;;;;;;;;;;4868844;29;20025;-70
2021/10/31 05:17:04;;;;;;;18.65;11.05;;;;;;;;;;4868115;29;20136;-71
2021/10/31 05:19:30;;;;;;;19.30;11.43;;;;;;;;;;4869986;29;20820;-69
2021/10/31 05:21:56;;;;;;;18.67;11.70;;;;;;;;;;4868594;29;20040;-70
2021/10/31 05:24:22;;;;;;;21.80;12.63;;;;;;;;;;4868317;29;20605;-73
2021/10/31 05:26:48;;;;;;;17.63;11.77;;;;;;;;;;4869577;29;20844;-69
2021/10/31 05:29:17;;;;;;;19.45;11.07;;;;;;;;;;4874945;29;20033;-70
2021/10/31 05:31:43;;;;;;;19.48;10.50;;;;;;;;;;4878440;29;20080;-70
2021/10/31 05:34:11;;;;;;;18.42;11.63;;;;;;;;;;4878704;29;20456;-69
2021/10/31 05:36:37;;;;;;;16.15;10.88;;;;;;;;;;4878391;29;20108;-69
2021/10/31 05:39:04;;;;;;;16.92;10.38;;;;;;;;;;4878104;29;20033;-68
2021/10/31 05:41:30;;;;;;;16.80;10.77;;;;;;;;;;4888874;29;20032;-67
2021/10/31 05:43:56;;;;;;;16.70;10.40;;;;;;;;;;4895756;29;20052;-67
2021/10/31 05:46:22;;;;;;;18.38;9.75;;;;;;;;;;4881674;29;20093;-68
2021/10/31 05:48:48;;;;;;;19.50;10.23;;;;;;;;;;4878192;29;20025;-70
2021/10/31 05:51:14;;;;;;;19.23;9.93;;;;;;;;;;4877811;29;20025;-66
2021/10/31 05:53:40;;;;;;;18.13;10.07;;;;;;;;;;4876812;29;20032;-67
2021/10/31 05:56:09;;;;;;;18.63;10.75;;;;;;;;;;4870905;29;20029;-67
2021/10/31 05:58:35;;;;;;;18.35;10.70;;;;;;;;;;4861825;29;20121;-67
2021/10/31 06:01:01;;;;;;;17.80;10.02;;;;;;;;;;4877731;29;20048;-67
2021/10/31 06:03:27;;;;;;;19.33;10.48;;;;;;;;;;4870154;29;20029;-66
2021/10/31 06:05:53;;;;;;;19.20;10.30;;;;;;;;;;4865801;29;20394;-67
2021/10/31 06:08:19;;;;;;;15.20;9.80;;;;;;;;;;4853009;29;20042;-67
2021/10/31 06:10:45;;;;;;;15.82;9.85;;;;;;;;;;4868296;29;20038;-71
2021/10/31 06:13:11;;;;;;;19.92;9.85;;;;;;;;;;4871733;29;20036;-68
2021/10/31 06:15:37;;;;;;;18.85;9.93;;;;;;;;;;4877479;29;20057;-73
2021/10/31 06:18:04;;;;;;;15.38;9.57;;;;;;;;;;4877262;29;20040;-69
2021/10/31 06:20:30;;;;;;;17.30;9.60;;;;;;;;;;4877339;29;20045;-72
2021/10/31 06:22:56;;;;;;;15.43;9.93;;;;;;;;;;4877193;29;20033;-70
2021/10/31 06:25:22;;;;;;;15.35;9.48;;;;;;;;;;4877714;29;20059;-74
2021/10/31 06:27:48;;;;;;;15.20;8.70;;;;;;;;;;4877103;29;20386;-74
2021/10/31 06:30:14;;;;;;;15.30;9.30;;;;;;;;;;4877184;29;20450;-64
2021/10/31 06:32:41;;;;;;;14.52;9.45;;;;;;;;;;4873967;29;20056;-72
2021/10/31 06:35:07;;;;;;;15.00;9.50;;;;;;;;;;4877633;29;20382;-70
2021/10/31 06:37:33;;;;;;;16.05;10.32;;;;;;;;;;4877179;29;20061;-79
2021/10/31 06:39:59;;;;;;;14.70;8.35;;;;;;;;;;4877189;29;20040;-72
2021/10/31 06:42:26;;;;;;;16.27;9.75;;;;;;;;;;4877288;29;20029;-74
2021/10/31 06:44:53;;;;;;;16.45;9.63;;;;;;;;;;4877260;29;20041;-70
2021/10/31 06:47:19;;;;;;;15.65;10.05;;;;;;;;;;4877057;29;20112;-68
2021/10/31 06:49:45;;;;;;;15.57;9.88;;;;;;;;;;4860200;29;20036;-68
2021/10/31 06:52:11;;;;;;;15.85;9.82;;;;;;;;;;4877158;29;20085;-70
2021/10/31 06:54:37;;;;;;;16.10;10.27;;;;;;;;;;4877083;29;20435;-71
2021/10/31 06:57:03;;;;;;;17.10;9.45;;;;;;;;;;4877030;29;20021;-68
2021/10/31 06:59:32;;;;;;;18.08;9.55;;;;;;;;;;4876622;29;20041;-73
2021/10/31 07:01:59;;;;;;;15.25;9.25;;;;;;;;;;4876947;29;20025;-74
2021/10/31 07:04:25;;;;;;;14.95;8.90;;;;;;;;;;4876823;29;20081;-72
2021/10/31 07:06:51;;;;;;;15.70;9.45;;;;;;;;;;4876849;29;20107;-69
2021/10/31 07:09:17;;;;;;;13.73;8.88;;;;;;;;;;4872634;29;20111;-74
2021/10/31 07:11:43;;;;;;;13.77;9.23;;;;;;;;;;4875452;29;20036;-69
2021/10/31 07:14:10;;;;;;;16.08;9.18;;;;;;;;;;4877085;29;20039;-80
2021/10/31 07:16:36;;;;;;;15.95;9.10;;;;;;;;;;4876589;29;20057;-69
2021/10/31 07:19:03;;;;;;;13.18;8.40;;;;;;;;;;4876743;29;20117;-71
2021/10/31 07:21:29;;;;;;;13.57;8.07;;;;;;;;;;4876752;29;20456;-67
2021/10/31 07:23:55;;;;;;;16.98;9.70;;;;;;;;;;4876471;29;20057;-76
2021/10/31 07:26:21;;;;;;;16.02;9.60;;;;;;;;;;4876779;29;20040;-78
2021/10/31 07:28:47;;;;;;;16.70;10.00;;;;;;;;;;4876677;29;20033;-68
2021/10/31 07:31:14;;;;;;;16.85;9.27;;;;;;;;;;4859288;29;20037;-68
2021/10/31 07:33:41;;;;;;;16.38;9.40;;;;;;;;;;4876163;29;20025;-73
2021/10/31 07:36:07;;;;;;;16.65;9.35;;;;;;;;;;4876790;29;20108;-68
2021/10/31 07:38:34;;;;;;;17.25;9.70;;;;;;;;;;4876439;29;20021;-72
2021/10/31 07:41:00;;;;;;;15.88;9.57;;;;;;;;;;4876445;29;20033;-72
2021/10/31 07:43:26;;;;;;;17.75;10.02;;;;;;;;;;4876024;29;20033;-68
2021/10/31 07:45:53;;;;;;;14.18;9.02;;;;;;;;;;4876211;29;20056;-73
2021/10/31 07:48:19;;;;;;;19.67;9.88;;;;;;;;;;4876419;29;20598;-73
2021/10/31 07:50:45;;;;;;;16.77;9.82;;;;;;;;;;4876376;29;20055;-70
2021/10/31 07:53:12;;;;;;;17.83;9.82;;;;;;;;;;4876272;29;20025;-75
2021/10/31 07:55:39;;;;;;;15.10;9.35;;;;;;;;;;4876342;29;20439;-78
2021/10/31 07:58:06;;;;;;;16.73;9.88;;;;;;;;;;4876012;29;20404;-70
2021/10/31 08:00:33;;;;;;;16.38;9.80;;;;;;;;;;4876083;29;20037;-77
2021/10/31 08:02:59;;;;;;;14.70;9.13;;;;;;;;;;4876467;29;20116;-78
2021/10/31 08:05:26;;;;;;;15.18;8.70;;;;;;;;;;4876211;29;20036;-69
2021/10/31 08:07:52;;;;;;;12.93;8.90;;;;;;;;;;4876045;29;20492;-75
2021/10/31 08:10:19;;;;;;;16.33;9.30;;;;;;;;;;4875277;29;20033;-67
2021/10/31 08:12:45;;;;;;;15.38;8.93;;;;;;;;;;4876562;29;20077;-78
2021/10/31 08:15:11;;;;;;;14.30;9.45;;;;;;;;;;4879815;29;20037;-77
2021/10/31 08:17:38;;;;;;;15.02;9.43;;;;;;;;;;4880072;29;20048;-76
2021/10/31 08:20:04;;;;;;;16.77;9.95;;;;;;;;;;4880432;29;20118;-76
2021/10/31 08:22:30;;;;;;;14.98;9.55;;;;;;;;;;4863349;29;20096;-67
2021/10/31 08:24:56;;;;;;;14.32;9.05;;;;;;;;;;4879569;29;20490;-67
2021/10/31 08:27:23;;;;;;;16.20;9.02;;;;;;;;;;4880038;29;20537;-68
2021/10/31 08:29:50;;;;;;;15.57;9.38;;;;;;;;;;4880140;29;20029;-68
2021/10/31 08:32:17;;;;;;;15.82;9.63;;;;;;;;;;4879933;29;20029;-76
2021/10/31 08:34:43;;;;;;;19.27;11.23;;;;;;;;;;4880207;29;20029;-69
2021/10/31 08:37:09;;;;;;;16.92;10.05;;;;;;;;;;4880125;29;20096;-79
2021/10/31 08:39:35;;;;;;;16.90;10.18;;;;;;;;;;4879813;29;20449;-67
2021/10/31 08:42:01;;;;;;;15.98;9.70;;;;;;;;;;4879925;29;20557;-67
2021/10/31 08:44:27;;;;;;;15.57;9.70;;;;;;;;;;4863096;29;20517;-76
2021/10/31 08:46:53;;;;;;;15.85;9.25;;;;;;;;;;4879811;29;20048;-77
2021/10/31 08:49:20;;;;;;;15.60;9.52;;;;;;;;;;4879763;29;20033;-68
2021/10/31 08:51:46;;;;;;;16.17;9.52;;;;;;;;;;4879677;29;20024;-68
2021/10/31 08:54:12;;;;;;;16.33;9.35;;;;;;;;;;4879428;29;20040;-69
2021/10/31 08:56:38;;;;;;;17.02;9.75;;;;;;;;;;4879464;29;20104;-72
2021/10/31 08:59:04;;;;;;;17.38;9.95;;;;;;;;;;4879225;29;20026;-68
2021/10/31 09:01:31;;;;;;;17.35;9.63;;;;;;;;;;4879316;29;20033;-68
2021/10/31 09:03:57;;;;;;;15.88;9.25;;;;;;;;;;4879307;29;20033;-71
2021/10/31 09:06:23;;;;;;;16.05;8.70;;;;;;;;;;4879111;29;20029;-68
2021/10/31 09:08:49;;;;;;;15.90;9.30;;;;;;;;;;4879205;29;20063;-71
2021/10/31 09:11:15;;;;;;;17.17;10.30;;;;;;;;;;4879213;29;20035;-73
2021/10/31 09:13:41;;;;;;;15.13;9.48;;;;;;;;;;4878964;29;20037;-74
2021/10/31 09:16:08;;;;;;;13.55;8.98;;;;;;;;;;4862102;29;20049;-68
2021/10/31 09:18:34;;;;;;;14.30;8.65;;;;;;;;;;4879138;29;20128;-68
2021/10/31 09:21:00;;;;;;;14.40;9.23;;;;;;;;;;4879005;29;20058;-69
2021/10/31 09:23:26;;;;;;;15.00;9.32;;;;;;;;;;4862347;29;20025;-76
2021/10/31 09:25:53;;;;;;;14.90;7.88;;;;;;;;;;4877755;29;20115;-69
2021/10/31 09:28:19;;;;;;;14.60;8.85;;;;;;;;;;4879043;29;20025;-68
2021/10/31 09:30:45;;;;;;;17.85;9.23;;;;;;;;;;4879103;29;20044;-68
2021/10/31 09:33:12;;;;;;;15.43;8.90;;;;;;;;;;4879045;29;20085;-68
2021/10/31 09:35:51;;;;;;;15.68;8.75;;;;;;;;;;4879240;29;20029;-68
2021/10/31 09:38:21;;;;;;;15.63;8.52;;;;;;;;;;4878965;29;20021;-73
2021/10/31 09:40:48;;;;;;;16.92;9.55;;;;;;;;;;4878706;29;20044;-72
2021/10/31 09:43:14;;;;;;;15.88;9.65;;;;;;;;;;4878429;29;20473;-70
2021/10/31 09:45:41;;;;;;;12.15;8.02;;;;;;;;;;4878750;29;20482;-71
2021/10/31 09:48:08;;;;;;;14.00;8.20;;;;;;;;;;4878704;29;20089;-74
2021/10/31 09:50:36;;;;;;;13.23;8.15;;;;;;;;;;4878736;29;20031;-71
2021/10/31 09:53:03;;;;;;;13.95;8.23;;;;;;;;;;4878507;29;20025;-70
2021/10/31 09:55:30;;;;;;;15.00;8.40;;;;;;;;;;4878444;29;20033;-68
2021/10/31 09:57:56;;;;;;;13.40;8.10;;;;;;;;;;4878228;29;20084;-75
2021/10/31 10:00:33;;;;;;;15.68;8.77;;;;;;;;;;4878115;29;20052;-75
2021/10/31 10:03:05;;;;;;;15.23;9.00;;;;;;;;;;4878449;29;20139;-74
2021/10/31 10:05:31;;;;;;;14.48;8.63;;;;;;;;;;4878462;29;20051;-69
2021/10/31 10:08:12;;;;;;;13.95;8.77;;;;;;;;;;4878339;29;20029;-68
2021/10/31 10:10:44;;;;;;;13.90;8.65;;;;;;;;;;4878197;29;20065;-77
2021/10/31 10:13:18;;;;;;;13.93;8.48;;;;;;;;;;4878062;29;20037;-73
2021/10/31 10:15:44;;;;;;;14.90;8.43;;;;;;;;;;4878251;29;20049;-72
2021/10/31 10:18:10;;;;;;;15.20;8.50;;;;;;;;;;4878224;29;20048;-71
2021/10/31 10:20:37;;;;;;;13.18;8.20;;;;;;;;;;4877967;29;20045;-71
2021/10/31 10:23:10;;;;;;;14.27;8.82;;;;;;;;;;4878004;29;20033;-68
2021/10/31 10:25:43;;;;;;;13.82;8.75;;;;;;;;;;4877812;29;20033;-75
2021/10/31 10:28:25;;;;;;;15.10;8.10;;;;;;;;;;4878079;29;20092;-74
2021/10/31 10:30:51;;;;;;;;;;;;;;;;;;4878373;29;20377;-68
2021/10/31 10:33:21;;;;;;;13.50;8.48;;;;;;;;;;4877880;29;19918;-67
2021/10/31 10:35:51;;;;;;;14.00;8.50;;;;;;;;;;4877592;29;20032;-69
2021/10/31 10:38:17;;;;;;;13.85;8.27;;;;;;;;;;4877678;29;20108;-76
2021/10/31 10:40:43;;;;;;;16.70;9.20;;;;;;;;;;4877667;29;20045;-71
2021/10/31 10:43:09;;;;;;;15.25;9.23;;;;;;;;;;4877675;29;20393;-68
2021/10/31 10:45:39;;;;;;;14.88;9.23;;;;;;;;;;4877692;29;20105;-78
2021/10/31 10:48:05;;;;;;;13.98;8.82;;;;;;;;;;4877735;29;20092;-68
2021/10/31 10:50:31;;;;;;;15.32;9.10;;;;;;;;;;4877648;29;20065;-78
2021/10/31 10:52:57;;;;;;;14.75;8.85;;;;;;;;;;4877355;29;20107;-78
2021/10/31 10:55:25;;;;;;;12.55;8.15;;;;;;;;;;4877372;29;20517;-79
2021/10/31 10:57:53;;;;;;;12.60;8.13;;;;;;;;;;4877584;29;20029;-71
2021/10/31 11:00:27;;;;;;;14.07;7.72;;;;;;;;;;4860687;29;20441;-72
2021/10/31 11:03:02;;;;;;;15.70;8.65;;;;;;;;;;4877406;29;20172;-80
2021/10/31 11:05:29;;;;;;;14.35;8.63;;;;;;;;;;4876659;29;20031;-78
2021/10/31 11:07:55;;;;;;;14.10;7.65;;;;;;;;;;4876909;29;20029;-79
2021/10/31 11:10:26;;;;;;;13.50;8.15;;;;;;;;;;4877079;29;20497;-74
2021/10/31 11:12:54;;;;;;;9.27;5.63;;;;;;;;;;4877297;29;20042;-72
2021/10/31 11:15:24;;;;;;;13.65;8.55;;;;;;;;;;4877351;29;20037;-79
2021/10/31 11:17:51;;;;;;;13.85;8.35;;;;;;;;;;4860514;29;20457;-73
2021/10/31 11:20:19;;;;;;;13.40;7.65;;;;;;;;;;4877436;29;20051;-68
2021/10/31 11:22:47;;;;;;;10.93;7.38;;;;;;;;;;4877524;29;20381;-79
2021/10/31 11:25:14;;;;;;;11.40;7.70;;;;;;;;;;4877353;29;20047;-68
2021/10/31 11:27:40;;;;;;;14.35;7.38;;;;;;;;;;4877185;29;20037;-80
2021/10/31 11:30:08;;;;;;;12.45;7.68;;;;;;;;;;4877231;29;20030;-79
2021/10/31 11:32:35;;;;;;;13.52;8.02;;;;;;;;;;4876903;29;20025;-81
2021/10/31 11:35:02;;;;;;;11.48;7.40;;;;;;;;;;4876209;29;20036;-71
2021/10/31 11:37:39;;;;;;;13.77;7.85;;;;;;;;;;4860587;29;20029;-71
2021/10/31 11:40:06;;;;;;;16.48;9.48;;;;;;;;;;4876781;29;20031;-70
2021/10/31 11:42:46;;;;;;;21.95;10.48;;;;;;;;;;4876790;29;20052;-75
2021/10/31 11:45:17;;;;;;;16.83;9.70;;;;;;;;;;4876883;29;20017;-69
2021/10/31 11:47:45;;;;;;;20.85;11.05;;;;;;;;;;4859803;29;20086;-75
2021/10/31 11:50:14;;;;;;;18.30;9.25;;;;;;;;;;4880525;29;20055;-79
2021/10/31 11:52:43;;;;;;;16.15;10.15;;;;;;;;;;4880468;29;20109;-70
2021/10/31 11:55:36;;;;;;;17.52;9.23;;;;;;;;;;4863500;29;20033;-70
2021/10/31 11:58:23;;;;;;;19.38;10.15;;;;;;;;;;4877787;29;20069;-75
2021/10/31 12:00:50;;;;;;;15.10;9.77;;;;;;;;;;4863087;29;20078;-73
2021/10/31 12:03:36;;;;;;;14.50;9.52;;;;;;;;;;4880284;29;20029;-78
2021/10/31 12:06:23;;;;;;;12.68;8.73;;;;;;;;;;4880230;29;20484;-70
2021/10/31 12:08:51;;;;;;;16.00;8.98;;;;;;;;;;4880147;29;20025;-80
2021/10/31 12:11:18;;;;;;;15.60;9.15;;;;;;;;;;4880277;29;20108;-70
2021/10/31 12:13:48;;;;;;;15.15;8.60;;;;;;;;;;4880120;29;20029;-69
2021/10/31 12:16:14;;;;;;;17.48;9.02;;;;;;;;;;4879659;29;20057;-69
2021/10/31 12:18:42;;;;;;;12.57;8.88;;;;;;;;;;4880294;29;20414;-71
2021/10/31 12:21:23;;;;;;;14.20;8.43;;;;;;;;;;4879872;29;20041;-69
2021/10/31 12:24:00;;;;;;;16.65;9.13;;;;;;;;;;4880060;29;20025;-69
2021/10/31 12:26:31;;;;;;;12.77;8.45;;;;;;;;;;4879920;29;20036;-70
2021/10/31 12:29:13;;;;;;;15.80;9.02;;;;;;;;;;4879744;29;20061;-68
2021/10/31 12:31:51;;;;;;;12.48;8.35;;;;;;;;;;4879679;29;20056;-75
2021/10/31 12:34:18;;;;;;;12.73;8.27;;;;;;;;;;4880065;29;20040;-72
2021/10/31 12:36:48;;;;;;;15.10;8.68;;;;;;;;;;4879584;29;20041;-73
2021/10/31 12:39:30;;;;;;;14.00;8.38;;;;;;;;;;4879555;29;20029;-72
2021/10/31 12:42:14;;;;;;;13.15;8.30;;;;;;;;;;4879261;29;20029;-77
2021/10/31 12:44:47;;;;;;;12.93;8.48;;;;;;;;;;4879445;29;20025;-68
2021/10/31 12:47:17;;;;;;;15.40;9.07;;;;;;;;;;4879388;29;20112;-72
2021/10/31 12:49:43;;;;;;;14.45;9.02;;;;;;;;;;4879503;29;20025;-71
2021/10/31 12:52:28;;;;;;;11.50;7.68;;;;;;;;;;4879337;29;20043;-69
2021/10/31 12:54:57;;;;;;;12.98;8.65;;;;;;;;;;4862743;29;20029;-68
2021/10/31 12:57:24;;;;;;;11.90;8.07;;;;;;;;;;4879039;29;20347;-69
2021/10/31 12:59:51;;;;;;;13.00;8.15;;;;;;;;;;4878946;29;20045;-69
2021/10/31 13:02:22;;;;;;;14.15;9.02;;;;;;;;;;4879196;29;20032;-73
2021/10/31 13:04:57;;;;;;;16.73;8.90;;;;;;;;;;4862496;29;20080;-69
2021/10/31 13:07:42;;;;;;;15.30;8.38;;;;;;;;;;4879081;29;20033;-67
2021/10/31 13:10:10;;;;;;;15.10;9.65;;;;;;;;;;4879112;29;20029;-69
2021/10/31 13:12:36;;;;;;;18.20;9.55;;;;;;;;;;4879093;29;20040;-68
2021/10/31 13:15:03;;;;;;;15.98;9.48;;;;;;;;;;4862323;29;20111;-68
2021/10/31 13:17:34;;;;;;;17.45;10.05;;;;;;;;;;4878914;29;20447;-69
2021/10/31 13:20:07;;;;;;;16.27;9.25;;;;;;;;;;4878817;29;20402;-70
2021/10/31 13:22:33;;;;;;;17.67;9.93;;;;;;;;;;4878740;29;20028;-68
2021/10/31 13:24:59;;;;;;;14.63;9.20;;;;;;;;;;4878989;29;20033;-71
2021/10/31 13:27:25;;;;;;;15.10;9.23;;;;;;;;;;4878726;29;20025;-71
2021/10/31 13:29:55;;;;;;;16.70;10.18;;;;;;;;;;4879100;29;20399;-68
2021/10/31 13:32:22;;;;;;;19.58;10.65;;;;;;;;;;4878744;29;20486;-71
2021/10/31 13:34:49;;;;;;;19.30;10.10;;;;;;;;;;4878489;29;20038;-77
2021/10/31 13:37:20;;;;;;;16.48;9.75;;;;;;;;;;4878526;29;20060;-69
2021/10/31 13:40:07;;;;;;;15.40;9.98;;;;;;;;;;4879018;29;20034;-68
2021/10/31 13:42:35;;;;;;;19.52;10.30;;;;;;;;;;4878558;29;20434;-75
2021/10/31 13:45:03;;;;;;;16.30;10.38;;;;;;;;;;4878556;29;20109;-72
2021/10/31 13:49:59;;;;;;;16.48;10.15;;;;;;;;;;4862237;29;20049;-70
2021/10/31 13:52:27;;;;;;;18.77;10.13;;;;;;;;;;4877729;29;20021;-72
2021/10/31 13:54:54;;;;;;;21.02;11.20;;;;;;;;;;4878181;29;20055;-75
2021/10/31 13:57:26;;;;;;;17.75;10.80;;;;;;;;;;4878113;29;20040;-70
2021/10/31 13:59:53;;;;;;;18.65;10.10;;;;;;;;;;4878035;29;20037;-72
2021/10/31 14:02:21;;;;;;;16.50;10.60;;;;;;;;;;4878225;29;20375;-68
2021/10/31 14:04:47;;;;;;;14.57;8.98;;;;;;;;;;4878383;29;20025;-71
2021/10/31 14:07:15;;;;;;;12.90;8.15;;;;;;;;;;4878059;29;20103;-69
2021/10/31 14:09:48;;;;;;;14.20;8.68;;;;;;;;;;4878063;29;20465;-71
2021/10/31 14:12:25;;;;;;;17.52;8.70;;;;;;;;;;4877436;29;20383;-69
2021/10/31 14:15:03;;;;;;;15.98;8.90;;;;;;;;;;4878001;29;20029;-76
2021/10/31 14:17:30;;;;;;;14.80;7.80;;;;;;;;;;4877942;29;20057;-72
2021/10/31 14:19:58;;;;;;;17.20;8.80;;;;;;;;;;4877853;29;20529;-72
2021/10/31 14:22:32;;;;;;;14.38;8.38;;;;;;;;;;4877880;29;20113;-70
2021/10/31 14:25:02;;;;;;;15.65;8.63;;;;;;;;;;4877535;29;20029;-69
2021/10/31 14:27:29;;;;;;;15.25;7.90;;;;;;;;;;4877860;29;20029;-74
2021/10/31 14:30:14;;;;;;;16.85;9.10;;;;;;;;;;4877641;29;20455;-68
2021/10/31 14:33:00;;;;;;;16.40;9.48;;;;;;;;;;4877850;29;20036;-76